Time;durP1;ratioP1;P1;durP2;ratioP2;P2;SDS_P1;SDS_P2;PMS_P1;PMS_P2;Temp;Humidity;BMP_temperature;BMP_pressure;BME280_temperature;BME280_humidity;BME280_pressure;Samples;Min_cycle;Max_cycle;Signal;HPM_P1;HPM_P2
2022/05/09 00:00:27;;;;;;;2.25;2.05;;;;;;;13.20;72.32;99384.06;4102881;28;20211;-53
2022/05/09 00:02:29;;;;;;;2.78;2.58;;;;;;;13.15;72.50;99377.59;4116621;28;20203;-53
2022/05/09 00:04:30;;;;;;;2.85;2.63;;;;;;;13.19;72.58;99382.38;4103996;28;20258;-53
2022/05/09 00:06:32;;;;;;;2.47;2.28;;;;;;;13.18;72.52;99380.69;4119561;28;20807;-52
2022/05/09 00:08:34;;;;;;;9.93;2.35;;;;;;;13.16;72.36;99382.84;4109471;28;20203;-54
2022/05/09 00:10:35;;;;;;;2.65;2.45;;;;;;;13.13;71.83;99377.88;4119930;28;20229;-53
2022/05/09 00:12:37;;;;;;;3.25;2.65;;;;;;;13.13;72.20;99372.38;4109190;28;20326;-53
2022/05/09 00:14:39;;;;;;;2.40;2.20;;;;;;;13.11;72.26;99376.44;4119868;28;20238;-53
2022/05/09 00:16:40;;;;;;;2.50;2.30;;;;;;;13.09;72.35;99376.69;4104573;28;20709;-52
2022/05/09 00:18:42;;;;;;;2.95;2.50;;;;;;;13.09;72.40;99376.69;4102798;28;20219;-52
2022/05/09 00:20:44;;;;;;;2.47;2.28;;;;;;;13.06;72.51;99377.19;4119837;28;20763;-53
2022/05/09 00:22:49;;;;;;;3.13;2.92;;;;;;;13.04;72.20;99379.31;4116870;28;20210;-52
2022/05/09 00:24:51;;;;;;;2.70;2.50;;;;;;;13.02;72.11;99381.47;4102890;28;20342;-52
2022/05/09 00:26:53;;;;;;;3.28;2.97;;;;;;;13.00;72.51;99367.16;4110969;28;20230;-52
2022/05/09 00:28:54;;;;;;;2.65;2.42;;;;;;;12.99;72.40;99372.91;4110952;28;20232;-52
2022/05/09 00:30:56;;;;;;;2.63;2.35;;;;;;;12.96;72.01;99376.16;4105709;28;20257;-52
2022/05/09 00:32:58;;;;;;;2.80;2.60;;;;;;;12.97;72.03;99372.31;4104374;28;22805;-53
2022/05/09 00:34:59;;;;;;;2.67;2.47;;;;;;;12.93;71.93;99365.59;4108299;28;20207;-53
2022/05/09 00:37:02;;;;;;;2.78;2.58;;;;;;;12.90;72.08;99355.94;4104148;28;20368;-53
2022/05/09 00:39:04;;;;;;;2.63;2.42;;;;;;;12.87;71.91;99359.19;4109353;28;20218;-52
2022/05/09 00:43:34;;;;;;;3.60;2.92;;;;;;;12.84;72.33;99367.88;4104943;28;20198;-53
2022/05/09 00:45:35;;;;;;;3.00;2.42;;;;;;;12.83;72.36;99366.22;4104715;28;20242;-53
2022/05/09 00:47:40;;;;;;;2.38;2.13;;;;;;;12.85;72.25;99366.00;4105705;28;20274;-53
2022/05/09 00:49:50;;;;;;;1.88;1.77;;;;;;;12.84;72.38;99362.41;4107816;28;20253;-53
2022/05/09 00:52:13;;;;;;;3.20;2.92;;;;;;;12.84;72.14;99361.56;4089251;29;20637;-53
2022/05/09 00:54:14;;;;;;;2.28;2.08;;;;;;;12.82;72.51;99364.56;4114757;28;20254;-53
2022/05/09 00:56:22;;;;;;;2.92;2.72;;;;;;;12.81;71.89;99356.56;4105652;28;20631;-53
2022/05/09 00:58:36;;;;;;;2.42;2.22;;;;;;;12.78;72.23;99357.88;4106908;28;20206;-53
2022/05/09 01:00:40;;;;;;;2.58;2.38;;;;;;;12.74;72.16;99356.72;4102706;28;20203;-52
2022/05/09 01:02:46;;;;;;;3.67;3.38;;;;;;;12.70;72.43;99365.69;4100576;28;21042;-53
2022/05/09 01:04:53;;;;;;;2.17;2.00;;;;;;;12.69;72.75;99364.84;4102374;28;20211;-52
2022/05/09 01:06:55;;;;;;;2.22;2.03;;;;;;;12.68;72.78;99365.91;4105203;28;20626;-53
2022/05/09 01:08:57;;;;;;;2.75;2.55;;;;;;;12.67;72.93;99361.50;4101787;28;20326;-53
2022/05/09 01:11:01;;;;;;;2.08;1.98;;;;;;;12.67;73.13;99366.16;4116889;28;20225;-52
2022/05/09 01:13:05;;;;;;;2.97;2.78;;;;;;;12.65;72.41;99362.81;4118183;28;20263;-53
2022/05/09 01:15:09;;;;;;;2.33;2.13;;;;;;;12.67;72.83;99375.25;4117519;28;20254;-52
2022/05/09 01:17:11;;;;;;;2.80;2.60;;;;;;;12.70;72.32;99372.00;4118997;28;20229;-52
2022/05/09 01:19:28;;;;;;;2.28;2.08;;;;;;;12.67;72.40;99371.63;4106082;28;20207;-53
2022/05/09 01:21:35;;;;;;;2.88;2.65;;;;;;;12.68;72.37;99379.66;4099482;28;20290;-53
2022/05/09 01:23:37;;;;;;;3.05;2.85;;;;;;;12.68;72.35;99374.16;4103415;28;20210;-52
2022/05/09 01:25:39;;;;;;;2.47;2.35;;;;;;;12.66;72.07;99373.56;4103393;28;20247;-53
2022/05/09 01:27:44;;;;;;;2.90;2.70;;;;;;;12.68;72.44;99368.66;4104659;28;21413;-52
2022/05/09 01:30:13;;;;;;;2.80;2.60;;;;;;;12.67;72.74;99372.50;4107874;28;20218;-55
2022/05/09 01:32:19;;;;;;;3.30;3.00;;;;;;;12.65;72.60;99363.63;4119934;28;20240;-53
2022/05/09 01:34:24;;;;;;;2.45;2.28;;;;;;;12.62;72.45;99363.28;4090874;28;20234;-53
2022/05/09 01:36:32;;;;;;;2.58;2.38;;;;;;;12.59;72.67;99363.78;4119365;28;20207;-53
2022/05/09 01:38:39;;;;;;;2.53;2.33;;;;;;;12.59;73.15;99366.53;4116699;28;20553;-53
2022/05/09 01:40:41;;;;;;;2.45;2.25;;;;;;;12.60;73.59;99359.97;4101357;28;20298;-53
2022/05/09 01:42:43;;;;;;;2.53;2.40;;;;;;;12.59;73.18;99364.63;4104130;28;20254;-53
2022/05/09 01:44:45;;;;;;;2.58;2.35;;;;;;;12.57;73.35;99366.75;4104240;28;20576;-52
2022/05/09 01:51:27;;;;;;;2.97;2.78;;;;;;;12.55;73.61;99368.09;4106049;28;20202;-53
2022/05/09 01:53:29;;;;;;;2.35;1.95;;;;;;;12.53;73.35;99365.59;4105873;28;20250;-53
2022/05/09 01:55:32;;;;;;;3.50;3.20;;;;;;;12.54;73.78;99364.53;4105510;28;20223;-53
2022/05/09 01:57:33;;;;;;;2.97;2.63;;;;;;;12.51;73.11;99364.97;4117552;28;20223;-53
2022/05/09 01:59:35;;;;;;;2.67;2.47;;;;;;;12.51;73.18;99367.72;4102948;28;20203;-52
2022/05/09 02:01:59;;;;;;;2.17;2.08;;;;;;;12.51;73.79;99372.41;4106936;28;20230;-53
2022/05/09 02:04:01;;;;;;;2.78;2.58;;;;;;;12.49;73.65;99364.41;4105587;28;20253;-53
2022/05/09 02:06:03;;;;;;;3.50;2.90;;;;;;;12.50;73.34;99365.25;4103708;28;20249;-52
2022/05/09 02:08:05;;;;;;;2.53;2.33;;;;;;;12.49;73.28;99375.38;4104230;28;20239;-52
2022/05/09 02:10:07;;;;;;;3.10;2.45;;;;;;;12.51;72.86;99375.97;4105254;28;20230;-53
2022/05/09 02:12:10;;;;;;;3.40;2.70;;;;;;;12.50;73.22;99376.22;4108389;28;20210;-52
2022/05/09 02:14:12;;;;;;;2.05;1.85;;;;;;;12.46;72.72;99370.38;4102157;28;20312;-54
2022/05/09 02:16:14;;;;;;;2.70;2.50;;;;;;;12.47;73.02;99369.31;4101010;28;20211;-53
2022/05/09 02:18:16;;;;;;;2.03;1.90;;;;;;;12.45;72.36;99374.19;4116168;28;20210;-53
2022/05/09 02:20:17;;;;;;;2.83;2.63;;;;;;;12.45;72.46;99371.44;4102415;28;20214;-53
2022/05/09 02:22:19;;;;;;;1.98;1.75;;;;;;;12.42;72.37;99366.44;4101759;28;20207;-53
2022/05/09 02:24:22;;;;;;;1.85;1.75;;;;;;;12.40;72.34;99373.25;4116428;28;20722;-52
2022/05/09 02:26:27;;;;;;;2.72;2.53;;;;;;;12.39;72.25;99368.84;4105400;28;20246;-53
2022/05/09 02:28:29;;;;;;;2.08;1.85;;;;;;;12.34;71.86;99371.47;4114272;28;20240;-53
2022/05/09 02:30:30;;;;;;;1.35;1.25;;;;;;;12.30;72.02;99365.63;4105385;28;20213;-53
2022/05/09 02:32:32;;;;;;;2.33;2.13;;;;;;;12.27;71.97;99371.59;4100598;28;20211;-53
2022/05/09 02:34:34;;;;;;;1.60;1.50;;;;;;;12.24;71.90;99361.09;4107580;28;20222;-53
2022/05/09 02:36:35;;;;;;;2.00;1.88;;;;;;;12.20;71.88;99365.41;4104874;28;20259;-52
2022/05/09 02:38:38;;;;;;;2.03;1.90;;;;;;;12.20;72.02;99365.41;4116088;28;20206;-52
2022/05/09 02:40:40;;;;;;;1.88;1.77;;;;;;;12.15;72.16;99362.53;4101958;28;20207;-52
2022/05/09 02:42:42;;;;;;;2.58;2.17;;;;;;;12.12;72.01;99368.47;4105744;28;20605;-53
2022/05/09 02:44:44;;;;;;;2.75;1.80;;;;;;;12.06;72.11;99371.38;4101666;28;20253;-52
2022/05/09 02:46:45;;;;;;;1.50;1.40;;;;;;;12.01;71.84;99371.25;4118599;28;20254;-52
2022/05/09 02:48:47;;;;;;;1.88;1.77;;;;;;;11.95;72.25;99378.53;4107603;28;20206;-52
2022/05/09 02:50:49;;;;;;;2.03;1.90;;;;;;;11.88;72.33;99377.81;4104067;28;20253;-52
2022/05/09 02:52:51;;;;;;;1.50;1.40;;;;;;;11.87;72.38;99365.16;4105077;28;20221;-52
2022/05/09 02:54:53;;;;;;;2.45;2.25;;;;;;;11.83;72.60;99374.94;4103480;28;20241;-53
2022/05/09 02:56:55;;;;;;;1.60;1.50;;;;;;;11.80;72.73;99375.41;4104026;28;20937;-53
2022/05/09 02:58:56;;;;;;;1.63;1.52;;;;;;;11.80;72.49;99375.41;4101751;28;22165;-53
2022/05/09 03:00:58;;;;;;;1.73;1.60;;;;;;;11.79;72.48;99373.75;4100578;28;20210;-53
2022/05/09 03:05:21;;;;;;;2.40;1.92;;;;;;;11.78;72.32;99369.31;4103086;28;20238;-53
2022/05/09 03:07:22;;;;;;;5.68;2.08;;;;;;;11.76;72.33;99376.94;4105864;28;21097;-52
2022/05/09 03:09:24;;;;;;;2.53;2.10;;;;;;;11.74;72.36;99376.34;4101048;28;20203;-52
2022/05/09 03:11:26;;;;;;;1.95;1.83;;;;;;;11.73;72.44;99374.69;4104852;28;20253;-53
2022/05/09 03:13:27;;;;;;;2.42;2.22;;;;;;;11.69;72.19;99368.00;4088937;28;20207;-52
2022/05/09 03:15:31;;;;;;;2.85;2.65;;;;;;;11.65;72.46;99357.75;4118224;28;20878;-52
2022/05/09 03:17:32;;;;;;;2.45;2.17;;;;;;;11.62;72.41;99361.78;4101429;28;20234;-53
2022/05/09 03:19:34;;;;;;;2.03;1.92;;;;;;;11.56;72.35;99359.97;4102240;28;20207;-52
2022/05/09 03:21:36;;;;;;;5.75;2.97;;;;;;;11.56;72.50;99359.16;4107687;28;20585;-52
2022/05/09 03:23:38;;;;;;;2.28;2.08;;;;;;;11.55;72.17;99358.28;4103153;28;20207;-53
2022/05/09 03:25:40;;;;;;;2.42;2.22;;;;;;;11.55;72.34;99362.94;4100664;28;20243;-52
2022/05/09 03:27:43;;;;;;;3.42;3.13;;;;;;;11.52;72.24;99361.50;4102217;28;20231;-54
2022/05/09 03:29:45;;;;;;;3.03;2.78;;;;;;;11.46;72.47;99367.94;4116409;28;20210;-56
2022/05/09 03:31:47;;;;;;;2.50;2.40;;;;;;;11.43;72.51;99373.88;4099511;28;20210;-54
2022/05/09 03:33:49;;;;;;;2.58;2.10;;;;;;;11.41;72.37;99372.44;4099867;28;20239;-55
2022/05/09 03:35:52;;;;;;;3.22;2.95;;;;;;;11.39;72.74;99378.16;4102650;28;20285;-55
2022/05/09 03:37:54;;;;;;;2.55;2.35;;;;;;;11.37;72.89;99374.81;4117475;28;21207;-54
2022/05/09 03:39:56;;;;;;;3.50;2.53;;;;;;;11.35;72.92;99378.84;4108742;28;20218;-55
2022/05/09 03:41:58;;;;;;;2.25;2.10;;;;;;;11.36;73.31;99375.03;4106794;28;21203;-55
2022/05/09 03:43:59;;;;;;;2.17;2.03;;;;;;;11.34;73.03;99375.28;4103501;28;20773;-56
2022/05/09 03:46:01;;;;;;;2.75;2.40;;;;;;;11.32;72.80;99377.41;4108777;28;20257;-54
2022/05/09 03:48:04;;;;;;;2.88;2.50;;;;;;;11.30;72.83;99376.00;4106370;28;20241;-55
2022/05/09 03:50:07;;;;;;;2.70;2.50;;;;;;;11.30;72.75;99379.56;4117241;28;20317;-55
2022/05/09 03:52:09;;;;;;;3.08;2.88;;;;;;;11.27;73.13;99380.03;4103551;28;21898;-54
2022/05/09 03:54:11;;;;;;;2.58;2.38;;;;;;;11.24;72.91;99374.19;4119806;28;20254;-54
2022/05/09 03:56:13;;;;;;;3.00;2.80;;;;;;;11.25;72.99;99384.88;4109299;28;20210;-54
2022/05/09 03:58:15;;;;;;;2.67;2.33;;;;;;;11.23;72.96;99378.00;4102317;28;20210;-55
2022/05/09 04:00:19;;;;;;;2.70;2.50;;;;;;;11.25;72.86;99381.34;4093046;28;20211;-54
2022/05/09 04:02:21;;;;;;;2.90;2.30;;;;;;;11.23;72.98;99384.28;4105226;28;20273;-54
2022/05/09 04:04:23;;;;;;;2.60;2.40;;;;;;;11.25;72.93;99382.16;4106352;28;20215;-55
2022/05/09 04:06:24;;;;;;;2.83;2.63;;;;;;;11.23;72.86;99378.81;4107918;28;20947;-54
2022/05/09 04:08:26;;;;;;;3.33;2.92;;;;;;;11.22;72.61;99377.16;4103797;28;20539;-55
2022/05/09 04:10:33;;;;;;;1.95;1.73;;;;;;;11.20;72.76;99384.78;4088585;28;20314;-54
2022/05/09 04:12:35;;;;;;;2.83;2.53;;;;;;;11.20;72.79;99378.44;4101475;28;20289;-53
2022/05/09 04:16:57;;;;;;;2.67;2.47;;;;;;;11.14;73.12;99388.44;4105258;28;20272;-53
2022/05/09 04:18:59;;;;;;;2.67;2.25;;;;;;;11.13;73.07;99391.41;4109175;28;20206;-54
2022/05/09 04:21:01;;;;;;;2.75;2.55;;;;;;;11.10;73.24;99384.47;4105446;28;20242;-54
2022/05/09 04:23:03;;;;;;;3.70;2.47;;;;;;;11.09;73.28;99382.81;4121063;28;20198;-54
2022/05/09 04:25:05;;;;;;;2.88;2.67;;;;;;;11.10;73.12;99389.97;4104501;28;20207;-53
2022/05/09 04:27:07;;;;;;;2.00;1.90;;;;;;;11.11;73.14;99386.16;4106222;28;20219;-56
2022/05/09 04:29:09;;;;;;;2.47;2.28;;;;;;;11.13;73.10;99395.00;4106045;28;20265;-53
2022/05/09 04:31:10;;;;;;;2.25;2.10;;;;;;;11.11;73.15;99396.28;4119218;28;20206;-54
2022/05/09 04:33:13;;;;;;;2.95;2.25;;;;;;;11.06;73.31;99394.25;4108473;28;20615;-55
2022/05/09 04:35:19;;;;;;;3.17;2.38;;;;;;;11.08;73.40;99386.63;4107927;28;20241;-53
2022/05/09 04:37:21;;;;;;;2.72;2.47;;;;;;;11.12;73.62;99397.97;4116393;28;20375;-53
2022/05/09 04:39:23;;;;;;;2.38;2.13;;;;;;;11.08;73.79;99392.09;4117460;28;21077;-53
2022/05/09 04:41:25;;;;;;;3.05;2.80;;;;;;;11.09;74.09;99392.91;4106271;28;20302;-54
2022/05/09 04:43:31;;;;;;;3.35;3.15;;;;;;;11.09;74.09;99390.19;4102474;28;20246;-53
2022/05/09 04:45:35;;;;;;;2.17;2.00;;;;;;;11.10;73.76;99395.44;4103936;28;20446;-55
2022/05/09 04:47:37;;;;;;;2.35;2.15;;;;;;;11.10;74.01;99394.63;4102079;28;20226;-53
2022/05/09 04:49:40;;;;;;;2.83;2.63;;;;;;;11.12;73.89;99401.50;4101419;28;20265;-53
2022/05/09 04:51:41;;;;;;;2.20;2.00;;;;;;;11.14;73.81;99401.28;4108240;28;20211;-53
2022/05/09 04:53:44;;;;;;;3.03;2.83;;;;;;;11.15;73.77;99402.97;4103555;28;20223;-55
2022/05/09 04:55:47;;;;;;;2.13;2.03;;;;;;;11.17;73.91;99412.63;4106133;28;20234;-54
2022/05/09 04:57:50;;;;;;;2.63;2.42;;;;;;;11.16;73.86;99405.47;4108971;28;20667;-54
2022/05/09 04:59:52;;;;;;;3.30;3.00;;;;;;;11.19;73.84;99410.50;4105501;28;20223;-53
2022/05/09 05:01:54;;;;;;;2.67;2.47;;;;;;;11.24;73.58;99407.06;4112806;28;20199;-54
2022/05/09 05:04:05;;;;;;;1.95;1.85;;;;;;;11.28;73.53;99403.63;4109082;28;20246;-56
2022/05/09 05:06:07;;;;;;;1.70;1.52;;;;;;;11.33;73.14;99409.25;4109117;28;20674;-56
2022/05/09 05:08:13;;;;;;;1.92;1.83;;;;;;;11.39;73.49;99411.06;4110893;28;20202;-54
2022/05/09 05:10:16;;;;;;;3.03;2.75;;;;;;;11.43;73.11;99406.75;4111976;28;20624;-55
2022/05/09 05:12:18;;;;;;;2.70;2.50;;;;;;;11.47;72.98;99412.59;4121864;28;22330;-54
2022/05/09 05:14:20;;;;;;;3.33;2.92;;;;;;;11.50;73.31;99407.50;4119715;28;20206;-54
2022/05/09 05:16:59;;;;;;;1.80;1.70;;;;;;;11.54;73.14;99411.44;4106473;28;20920;-55
2022/05/09 05:18:47;;;;;;;1.95;1.85;;;;;;;11.60;73.16;99407.81;4103965;28;20771;-54
2022/05/09 05:20:48;;;;;;;3.15;2.85;;;;;;;11.65;73.18;99409.84;4102484;28;20219;-54
2022/05/09 05:22:51;;;;;;;2.50;2.30;;;;;;;11.69;73.00;99414.63;4104615;28;20214;-55
2022/05/09 05:24:54;;;;;;;2.15;1.98;;;;;;;11.73;72.97;99414.97;4104273;28;20218;-54
2022/05/09 05:26:56;;;;;;;3.20;2.92;;;;;;;11.79;73.23;99417.63;4108110;28;20241;-55
2022/05/09 05:28:59;;;;;;;2.50;2.35;;;;;;;11.84;73.16;99420.47;4067597;28;20230;-54
2022/05/09 05:31:14;;;;;;;2.72;2.50;;;;;;;11.89;75.28;99420.59;4120489;28;20218;-53
2022/05/09 05:33:17;;;;;;;3.40;3.10;;;;;;;12.05;76.61;99424.56;4107501;28;20215;-54
2022/05/09 05:35:22;;;;;;;3.10;2.90;;;;;;;12.22;75.64;99418.13;4092958;28;20239;-53
2022/05/09 05:37:25;;;;;;;3.03;2.83;;;;;;;12.26;75.28;99424.81;4119176;28;20238;-53
2022/05/09 05:39:27;;;;;;;3.53;3.25;;;;;;;12.43;75.58;99425.75;4094271;28;20231;-54
2022/05/09 05:41:31;;;;;;;3.10;2.80;;;;;;;12.61;75.69;99433.88;4110079;28;20210;-52
2022/05/09 05:43:33;;;;;;;3.05;2.75;;;;;;;12.89;75.29;99438.59;4098430;28;20238;-59
2022/05/09 05:45:35;;;;;;;3.53;3.17;;;;;;;13.02;75.01;99430.94;4103885;28;20266;-55
2022/05/09 05:47:38;;;;;;;2.85;2.53;;;;;;;13.03;73.61;99437.28;4105759;28;20223;-55
2022/05/09 05:49:40;;;;;;;2.60;2.40;;;;;;;12.87;73.64;99438.84;4122067;28;20205;-55
2022/05/09 05:51:43;;;;;;;2.67;2.47;;;;;;;13.16;73.94;99437.81;4101090;28;20258;-55
2022/05/09 05:53:46;;;;;;;3.17;2.88;;;;;;;13.16;73.64;99443.31;4108717;28;20249;-55
2022/05/09 05:55:48;;;;;;;3.60;3.38;;;;;;;13.21;74.14;99440.69;4108490;28;20274;-54
2022/05/09 05:57:50;;;;;;;2.92;2.72;;;;;;;13.23;73.34;99444.00;4118808;28;20241;-53
2022/05/09 05:59:54;;;;;;;3.08;2.88;;;;;;;13.31;73.50;99440.88;4105044;28;20245;-53
2022/05/09 06:01:57;;;;;;;3.25;3.03;;;;;;;13.43;73.20;99447.16;4109946;28;20210;-54
2022/05/09 06:03:59;;;;;;;2.83;2.63;;;;;;;13.47;72.78;99453.84;4103937;28;20229;-53
2022/05/09 06:06:02;;;;;;;3.60;3.17;;;;;;;13.40;72.87;99444.91;4119213;28;20218;-54
2022/05/09 06:08:05;;;;;;;7.68;3.53;;;;;;;13.29;72.49;99448.53;4119812;28;20694;-53
2022/05/09 06:10:09;;;;;;;3.85;3.38;;;;;;;13.35;73.29;99446.72;4100851;28;20215;-52
2022/05/09 06:12:13;;;;;;;3.05;2.85;;;;;;;13.48;73.21;99447.28;4100383;28;20206;-53
2022/05/09 06:14:15;;;;;;;2.90;2.70;;;;;;;13.70;72.75;99445.47;4106129;28;20215;-53
2022/05/09 06:16:17;;;;;;;4.35;2.92;;;;;;;13.73;72.11;99456.00;4099819;28;20231;-52
2022/05/09 06:18:18;;;;;;;2.97;2.78;;;;;;;13.81;72.31;99452.00;4110864;28;20257;-54
2022/05/09 06:20:21;;;;;;;3.35;3.10;;;;;;;13.88;72.21;99453.50;4110068;28;20207;-53
2022/05/09 06:22:22;;;;;;;3.75;3.45;;;;;;;13.97;73.07;99448.44;4104504;28;20266;-55
2022/05/09 06:24:24;;;;;;;3.00;2.70;;;;;;;13.92;71.71;99454.69;4105749;28;20224;-53
2022/05/09 06:26:27;;;;;;;5.50;2.92;;;;;;;13.95;71.76;99454.19;4103466;28;20724;-53
2022/05/09 06:28:29;;;;;;;2.97;2.78;;;;;;;14.03;71.20;99456.53;4094155;28;20217;-52
2022/05/09 06:30:32;;;;;;;3.70;3.40;;;;;;;14.29;72.03;99455.91;4109506;28;20689;-54
2022/05/09 06:32:34;;;;;;;2.70;2.50;;;;;;;14.50;72.39;99455.13;4117902;28;20210;-53
2022/05/09 06:34:35;;;;;;;3.10;2.85;;;;;;;14.65;71.69;99452.63;4101566;28;20270;-53
2022/05/09 06:36:38;;;;;;;3.15;2.95;;;;;;;14.80;71.18;99452.84;4105220;28;20290;-54
2022/05/09 06:38:40;;;;;;;2.90;2.70;;;;;;;15.03;70.51;99455.34;4102690;28;20575;-54
2022/05/09 06:40:42;;;;;;;3.03;2.35;;;;;;;15.20;69.80;99453.38;4103196;28;20255;-54
2022/05/09 06:42:46;;;;;;;2.65;2.42;;;;;;;15.40;69.52;99455.56;4103911;28;20219;-54
2022/05/09 06:44:48;;;;;;;2.13;1.92;;;;;;;15.47;69.21;99453.44;4103272;28;20708;-53
2022/05/09 06:46:50;;;;;;;2.63;2.42;;;;;;;15.60;68.41;99448.34;4103010;28;20233;-53
2022/05/09 06:48:52;;;;;;;2.20;2.00;;;;;;;15.74;68.52;99452.38;4107184;28;20242;-52
2022/05/09 06:50:54;;;;;;;2.72;2.15;;;;;;;15.77;69.18;99454.59;4091749;28;20215;-52
2022/05/09 06:52:56;;;;;;;3.17;2.88;;;;;;;15.87;68.83;99454.72;4103371;28;20257;-54
2022/05/09 06:55:16;;;;;;;2.40;2.25;;;;;;;15.97;68.40;99449.25;4112596;28;20673;-54
2022/05/09 06:57:18;;;;;;;2.42;1.85;;;;;;;16.14;67.89;99449.97;4103887;28;20246;-53
2022/05/09 06:59:20;;;;;;;3.72;3.45;;;;;;;16.29;67.33;99458.38;4105074;28;20214;-53
2022/05/09 07:01:21;;;;;;;2.65;2.45;;;;;;;16.37;68.33;99455.13;4101479;28;20207;-54
2022/05/09 07:03:25;;;;;;;3.03;2.83;;;;;;;16.56;67.59;99459.19;4101936;28;20776;-51
2022/05/09 07:05:27;;;;;;;3.95;3.25;;;;;;;16.73;66.71;99454.34;4103597;28;20213;-52
2022/05/09 07:07:29;;;;;;;2.22;2.03;;;;;;;16.98;65.76;99446.19;4114056;28;20313;-54
2022/05/09 07:09:31;;;;;;;3.33;3.03;;;;;;;16.98;66.85;99457.25;4096105;28;20289;-54
2022/05/09 07:11:33;;;;;;;4.30;2.55;;;;;;;17.11;65.64;99457.59;4103212;28;20214;-57
2022/05/09 07:13:48;;;;;;;3.55;2.40;;;;;;;17.36;65.74;99456.88;4117873;28;20253;-54
2022/05/09 07:16:08;;;;;;;2.03;1.65;;;;;;;17.27;65.38;99464.03;4106990;28;20214;-53
2022/05/09 07:18:10;;;;;;;2.50;2.20;;;;;;;17.46;64.79;99459.72;4119000;28;20289;-53
2022/05/09 07:20:13;;;;;;;3.42;1.75;;;;;;;17.50;64.68;99461.66;4102903;28;20217;-55
2022/05/09 07:22:17;;;;;;;1.60;1.50;;;;;;;17.64;64.12;99467.53;4122323;28;20668;-54
2022/05/09 07:24:21;;;;;;;2.67;2.47;;;;;;;17.70;64.14;99456.19;4112561;28;20264;-52
2022/05/09 07:26:23;;;;;;;2.53;2.33;;;;;;;17.73;64.24;99463.94;4099483;28;20218;-53
2022/05/09 07:28:27;;;;;;;2.80;2.17;;;;;;;17.99;63.34;99465.66;4115347;28;20210;-52
2022/05/09 07:30:30;;;;;;;2.50;2.30;;;;;;;18.12;63.81;99467.06;4098480;28;20215;-52
2022/05/09 07:32:33;;;;;;;3.45;2.30;;;;;;;18.17;62.89;99459.59;4113221;28;20554;-54
2022/05/09 07:34:35;;;;;;;2.75;2.40;;;;;;;18.28;63.17;99458.50;4108722;28;20229;-52
2022/05/09 07:36:37;;;;;;;2.55;2.35;;;;;;;18.29;63.59;99464.84;4092806;28;20358;-53
2022/05/09 07:38:39;;;;;;;2.85;2.40;;;;;;;18.44;62.68;99462.13;4111559;28;20206;-52
2022/05/09 07:40:44;;;;;;;3.28;3.00;;;;;;;18.43;62.16;99471.53;4105260;28;20210;-51
2022/05/09 07:42:47;;;;;;;2.72;2.53;;;;;;;18.79;63.12;99459.31;4108759;28;20662;-53
2022/05/09 07:44:52;;;;;;;1.52;1.42;;;;;;;18.86;62.33;99459.88;4108512;28;20218;-53
2022/05/09 07:46:55;;;;;;;2.95;2.70;;;;;;;18.65;61.91;99464.59;4098846;28;20237;-51
2022/05/09 07:48:57;;;;;;;3.45;3.15;;;;;;;18.98;62.42;99455.66;4109798;28;20218;-51
2022/05/09 07:50:59;;;;;;;3.72;2.30;;;;;;;19.03;61.99;99450.09;4122060;28;20297;-52
2022/05/09 07:53:12;;;;;;;2.33;2.13;;;;;;;18.59;61.48;99460.16;4098943;28;20294;-55
2022/05/09 07:55:17;;;;;;;2.70;2.50;;;;;;;18.68;61.00;99469.59;4108285;28;20268;-53
2022/05/09 07:57:19;;;;;;;5.15;2.15;;;;;;;18.98;62.23;99457.63;4110215;28;20226;-53
2022/05/09 07:59:21;;;;;;;2.20;2.00;;;;;;;19.06;60.74;99465.38;4106560;28;20210;-53
2022/05/09 08:01:23;;;;;;;2.60;2.15;;;;;;;19.25;60.87;99463.69;4106997;28;20713;-52
2022/05/09 08:03:29;;;;;;;3.25;2.38;;;;;;;19.10;60.97;99472.84;4111159;28;20222;-52
2022/05/09 08:05:32;;;;;;;4.35;2.15;;;;;;;19.52;59.73;99469.66;4093169;28;20338;-53
2022/05/09 08:07:34;;;;;;;2.10;1.83;;;;;;;19.44;59.12;99467.50;4108007;28;20228;-55
2022/05/09 08:09:38;;;;;;;2.78;2.25;;;;;;;19.19;58.88;99464.78;4107966;28;20545;-53
2022/05/09 08:11:40;;;;;;;2.40;1.85;;;;;;;19.45;60.35;99461.63;4109458;28;20649;-53
2022/05/09 08:13:42;;;;;;;3.55;1.77;;;;;;;19.71;59.72;99465.13;4106777;28;20306;-52
2022/05/09 08:15:46;;;;;;;1.95;1.83;;;;;;;20.03;59.60;99465.47;4108512;28;20318;-53
2022/05/09 08:17:49;;;;;;;1.67;1.58;;;;;;;20.24;58.32;99467.06;4108025;28;20234;-55
2022/05/09 08:19:55;;;;;;;2.38;2.03;;;;;;;19.89;58.57;99462.53;4122305;28;20300;-54
2022/05/09 08:21:58;;;;;;;2.10;1.90;;;;;;;20.00;59.16;99466.06;4120448;28;20217;-53
2022/05/09 08:24:00;;;;;;;3.28;2.40;;;;;;;19.57;57.98;99461.31;4104231;28;20222;-53
2022/05/09 08:26:03;;;;;;;2.72;2.15;;;;;;;20.18;58.30;99465.41;4112253;28;20213;-54
2022/05/09 08:28:07;;;;;;;2.47;2.25;;;;;;;20.12;56.58;99472.13;4103778;28;20254;-53
2022/05/09 08:30:09;;;;;;;2.55;2.20;;;;;;;20.18;57.53;99468.19;4106745;28;20203;-53
2022/05/09 08:32:17;;;;;;;2.88;1.65;;;;;;;20.48;57.08;99467.94;4103188;28;20207;-52
2022/05/09 08:34:19;;;;;;;2.63;1.98;;;;;;;20.23;55.68;99466.22;4105553;28;20210;-53
2022/05/09 08:38:41;;;;;;;2.25;1.58;;;;;;;19.68;58.56;99469.31;4102056;28;20210;-54
2022/05/09 08:41:05;;;;;;;2.25;2.10;;;;;;;20.08;57.98;99468.25;4096117;28;20254;-52
2022/05/09 08:43:13;;;;;;;2.25;1.77;;;;;;;20.33;55.99;99462.53;4113959;28;20268;-54
2022/05/09 08:45:24;;;;;;;3.05;2.75;;;;;;;20.31;57.04;99457.25;4114692;28;20223;-53
2022/05/09 08:47:53;;;;;;;2.25;1.80;;;;;;;21.04;56.63;99466.34;4102020;28;20233;-55
2022/05/09 08:50:14;;;;;;;2.28;2.08;;;;;;;21.46;55.60;99458.88;4118274;28;20850;-52
2022/05/09 08:52:21;;;;;;;1.70;1.60;;;;;;;21.05;53.95;99459.66;4118329;28;20228;-53
2022/05/09 08:54:24;;;;;;;2.17;1.98;;;;;;;21.27;53.73;99462.72;4103231;28;20334;-53
2022/05/09 08:56:26;;;;;;;1.63;1.52;;;;;;;21.37;55.50;99466.22;4105304;28;20234;-52
2022/05/09 08:58:42;;;;;;;2.30;1.88;;;;;;;21.70;54.35;99464.47;4118522;28;20285;-52
2022/05/09 09:00:49;;;;;;;2.35;1.95;;;;;;;21.32;54.11;99462.69;4103333;28;20198;-52
2022/05/09 09:03:04;;;;;;;2.97;2.30;;;;;;;21.61;54.90;99463.41;4122587;28;20222;-52
2022/05/09 09:05:10;;;;;;;2.53;1.95;;;;;;;21.95;54.52;99466.88;4105210;28;20199;-51
2022/05/09 09:07:19;;;;;;;1.67;1.58;;;;;;;21.71;52.44;99466.13;4103389;28;20231;-53
2022/05/09 09:09:54;;;;;;;2.15;1.77;;;;;;;21.51;53.65;99460.78;4116750;28;20202;-53
2022/05/09 09:12:11;;;;;;;3.05;2.75;;;;;;;21.50;53.95;99453.56;4111547;28;20269;-52
2022/05/09 09:14:46;;;;;;;2.25;2.13;;;;;;;21.98;54.51;99464.31;4121373;28;20208;-54
2022/05/09 09:17:24;;;;;;;1.85;1.70;;;;;;;22.59;52.87;99461.44;4097508;28;20347;-53
2022/05/09 09:19:57;;;;;;;1.98;1.55;;;;;;;22.84;50.40;99458.22;4109422;28;20213;-53
2022/05/09 09:22:05;;;;;;;2.55;1.80;;;;;;;22.36;52.32;99454.81;4118467;28;20563;-52
2022/05/09 09:24:16;;;;;;;1.65;1.30;;;;;;;22.47;51.10;99461.06;4102534;28;20268;-52
2022/05/09 09:26:50;;;;;;;2.50;1.80;;;;;;;22.02;52.04;99461.75;4105859;28;20218;-53
2022/05/09 09:30:05;;;;;;;2.40;2.20;;;;;;;22.11;52.71;99465.53;4085765;28;20221;-52
2022/05/09 09:32:10;;;;;;;1.58;1.48;;;;;;;22.71;51.42;99464.56;4095879;28;20326;-51
2022/05/09 09:34:48;;;;;;;2.70;1.95;;;;;;;23.24;50.94;99449.09;4106055;28;21007;-52
2022/05/09 09:37:03;;;;;;;1.75;1.65;;;;;;;22.72;50.15;99455.88;4118529;28;20256;-55
2022/05/09 09:39:11;;;;;;;1.45;1.35;;;;;;;22.91;50.85;99459.44;4106812;28;20206;-52
2022/05/09 09:41:34;;;;;;;2.40;2.20;;;;;;;22.78;49.27;99459.44;4104187;28;20232;-52
2022/05/09 09:43:36;;;;;;;1.88;1.23;;;;;;;22.70;50.27;99452.56;4102296;28;20673;-52
2022/05/09 09:45:46;;;;;;;1.50;1.40;;;;;;;23.48;50.71;99446.91;4104866;28;20254;-54
2022/05/09 09:48:11;;;;;;;2.15;1.95;;;;;;;22.73;49.22;99448.34;4102441;28;20712;-52
2022/05/09 09:50:20;;;;;;;1.95;1.70;;;;;;;23.09;50.56;99439.00;4103685;28;21143;-53
2022/05/09 09:52:30;;;;;;;1.95;1.30;;;;;;;23.13;49.03;99444.78;4102569;28;20394;-53
2022/05/09 09:54:34;;;;;;;2.72;1.63;;;;;;;23.47;49.21;99439.66;4099973;28;20211;-52
2022/05/09 09:56:38;;;;;;;1.40;1.20;;;;;;;23.64;49.57;99446.25;4106362;28;20226;-54
2022/05/09 09:58:42;;;;;;;1.50;1.40;;;;;;;23.41;48.70;99440.91;4104944;28;20211;-54
2022/05/09 10:00:45;;;;;;;2.03;1.83;;;;;;;23.16;50.42;99438.63;4104885;28;20289;-52
2022/05/09 10:02:48;;;;;;;2.30;2.10;;;;;;;23.62;50.32;99444.91;4105112;28;20209;-53